Time;durP1;ratioP1;P1;durP2;ratioP2;P2;SDS_P1;SDS_P2;PMS_P1;PMS_P2;Temp;Humidity;BMP_temperature;BMP_pressure;BME280_temperature;BME280_humidity;BME280_pressure;Samples;Min_cycle;Max_cycle;Signal;HPM_P1;HPM_P2
2022/03/03 00:02:26;;;;;;;9.58;5.65;;;;;;;-0.42;65.90;97541.08;1696360;83;21057;-86
2022/03/03 00:04:53;;;;;;;10.75;5.80;;;;;;;-0.41;65.44;97544.15;1694388;84;21049;-87
2022/03/03 00:07:20;;;;;;;10.50;5.40;;;;;;;-0.40;65.78;97538.92;1694246;84;20991;-86
2022/03/03 00:09:47;;;;;;;11.70;6.17;;;;;;;-0.38;65.15;97538.94;1677351;85;21465;-87
2022/03/03 00:12:13;;;;;;;12.85;6.10;;;;;;;-0.36;65.02;97538.95;1678179;84;21036;-87
2022/03/03 00:14:40;;;;;;;9.70;5.70;;;;;;;-0.33;64.93;97541.59;1672044;86;21072;-87
2022/03/03 00:17:08;;;;;;;10.53;5.83;;;;;;;-0.35;65.38;97546.78;1676211;85;20950;-87
2022/03/03 00:19:35;;;;;;;10.65;5.50;;;;;;;-0.36;64.95;97541.56;1705995;84;21459;-87
2022/03/03 00:22:01;;;;;;;10.63;5.95;;;;;;;-0.33;64.90;97539.84;1711813;83;21054;-86
2022/03/03 00:24:28;;;;;;;12.10;5.67;;;;;;;-0.34;64.89;97542.02;1735173;83;21080;-87
2022/03/03 00:26:55;;;;;;;11.57;5.78;;;;;;;-0.36;64.66;97537.23;1735085;83;21050;-87
2022/03/03 00:29:24;;;;;;;11.40;5.75;;;;;;;-0.34;65.20;97539.86;1735007;83;21022;-87
2022/03/03 00:31:50;;;;;;;11.05;5.47;;;;;;;-0.48;66.17;97535.42;1731717;83;21000;-86
2022/03/03 00:34:17;;;;;;;9.85;5.75;;;;;;;-0.50;65.54;97534.97;1705659;84;21485;-86
2022/03/03 00:36:43;;;;;;;11.85;6.22;;;;;;;-0.53;65.42;97529.30;1675469;86;21043;-86
2022/03/03 00:39:12;;;;;;;9.85;5.30;;;;;;;-0.60;66.81;97536.61;1705499;84;21003;-86
2022/03/03 00:41:38;;;;;;;10.18;5.10;;;;;;;-0.63;66.83;97537.91;1695195;84;21052;-86
2022/03/03 00:44:06;;;;;;;14.33;6.40;;;;;;;-0.76;67.55;97532.59;1754320;81;20964;-87
2022/03/03 00:46:34;;;;;;;11.68;5.78;;;;;;;-0.76;66.76;97532.59;1765020;81;21008;-86
2022/03/03 00:49:00;;;;;;;12.90;5.80;;;;;;;-0.81;67.63;97535.59;1763816;81;21068;-86
2022/03/03 00:51:27;;;;;;;10.55;5.85;;;;;;;-0.85;67.51;97531.22;1742135;81;21004;-86
2022/03/03 00:53:54;;;;;;;11.55;6.10;;;;;;;-0.90;67.49;97540.71;1742612;82;21047;-86
2022/03/03 00:56:21;;;;;;;11.15;6.25;;;;;;;-0.99;68.25;97529.80;1735033;83;21031;-86
2022/03/03 00:58:48;;;;;;;13.90;6.60;;;;;;;-1.03;68.72;97528.03;1742441;82;21070;-87
2022/03/03 01:01:17;;;;;;;10.95;6.35;;;;;;;-1.09;68.92;97528.41;1727337;82;21029;-87
2022/03/03 01:03:45;;;;;;;10.78;6.45;;;;;;;-1.11;68.78;97526.24;1720017;83;21020;-87
2022/03/03 01:06:13;;;;;;;10.45;6.00;;;;;;;-1.14;68.93;97522.72;1720331;83;21024;-87
2022/03/03 01:08:40;;;;;;;15.68;6.72;;;;;;;-1.18;69.43;97526.14;1720087;83;21016;-87
2022/03/03 01:11:07;;;;;;;10.68;6.42;;;;;;;-1.17;68.20;97515.76;1721873;83;21494;-87
2022/03/03 01:13:35;;;;;;;12.03;6.20;;;;;;;-1.18;68.25;97522.23;1704055;84;21019;-86
2022/03/03 01:16:01;;;;;;;11.95;6.70;;;;;;;-1.23;69.10;97528.30;1703834;84;21025;-86
2022/03/03 01:18:28;;;;;;;11.53;6.20;;;;;;;-1.23;68.50;97520.49;1723823;83;21308;-86
2022/03/03 01:20:56;;;;;;;15.32;6.65;;;;;;;-1.25;68.61;97527.39;1705797;84;21462;-86
2022/03/03 01:23:23;;;;;;;13.28;6.25;;;;;;;-1.25;68.49;97522.63;1709619;84;21026;-87
2022/03/03 01:25:50;;;;;;;12.60;6.80;;;;;;;-1.25;68.67;97523.94;1711200;84;21493;-86
2022/03/03 01:28:16;;;;;;;12.45;5.72;;;;;;;-1.28;69.62;97522.59;1729565;83;21057;-87
2022/03/03 01:30:43;;;;;;;11.70;6.62;;;;;;;-1.34;70.29;97519.08;1709650;84;20983;-86
2022/03/03 01:33:12;;;;;;;11.38;6.30;;;;;;;-1.33;69.75;97515.61;1732498;83;21007;-87
2022/03/03 01:35:42;;;;;;;8.73;5.97;;;;;;;-1.31;69.20;97513.45;1732520;83;21016;-88
2022/03/03 01:38:09;;;;;;;12.60;6.92;;;;;;;-1.33;69.30;97514.31;1732176;83;21048;-88
2022/03/03 01:40:38;;;;;;;13.15;6.53;;;;;;;-1.29;68.32;97511.31;1710475;83;21128;-87
2022/03/03 01:43:05;;;;;;;9.85;5.92;;;;;;;-1.30;69.27;97515.22;1738075;82;20987;-88
2022/03/03 01:45:33;;;;;;;14.38;6.62;;;;;;;-1.33;69.78;97515.61;1729849;83;20996;-86
2022/03/03 01:48:01;;;;;;;12.33;6.55;;;;;;;-1.31;69.28;97521.25;1731311;82;21012;-87
2022/03/03 01:50:28;;;;;;;12.90;6.65;;;;;;;-1.29;69.10;97510.01;1693667;84;21458;-86
2022/03/03 01:52:55;;;;;;;12.78;5.90;;;;;;;-1.26;69.05;97510.47;1675889;86;21036;-87
2022/03/03 01:55:23;;;;;;;10.95;6.67;;;;;;;-1.27;69.67;97509.62;1704224;84;21079;-87
2022/03/03 01:57:51;;;;;;;12.20;6.75;;;;;;;-1.31;69.50;97503.05;1685234;84;21032;-88
2022/03/03 02:00:22;;;;;;;11.60;6.20;;;;;;;-1.33;69.80;97502.61;1712336;84;20991;-87
2022/03/03 02:02:49;;;;;;;14.93;6.00;;;;;;;-1.32;69.72;97502.20;1712393;84;21421;-87
2022/03/03 02:05:16;;;;;;;12.43;6.30;;;;;;;-1.35;70.36;97497.84;1712473;84;21016;-87
2022/03/03 02:07:43;;;;;;;13.83;6.67;;;;;;;-1.38;70.80;97500.81;1698887;84;21056;-87
2022/03/03 02:10:10;;;;;;;12.93;6.12;;;;;;;-1.38;70.56;97492.60;1682864;85;21079;-87
2022/03/03 02:12:38;;;;;;;13.48;6.75;;;;;;;-1.43;71.04;97491.69;1653618;87;21020;-87
2022/03/03 02:15:06;;;;;;;14.90;7.22;;;;;;;-1.43;70.15;97486.48;1682502;85;21032;-87
2022/03/03 02:17:33;;;;;;;12.43;6.58;;;;;;;-1.41;69.73;97489.95;1662981;84;21084;-87
2022/03/03 02:20:05;;;;;;;10.93;6.58;;;;;;;-1.42;69.29;97497.32;1703969;84;21442;-87
2022/03/03 02:22:35;;;;;;;14.65;6.50;;;;;;;-1.44;70.40;97489.06;1676146;86;21103;-87
2022/03/03 02:25:02;;;;;;;12.73;6.90;;;;;;;-1.45;69.72;97483.02;1674743;86;21317;-88
2022/03/03 02:27:29;;;;;;;11.73;6.60;;;;;;;-1.44;69.21;97493.84;1698403;84;20970;-88
2022/03/03 02:29:58;;;;;;;19.62;6.92;;;;;;;-1.44;68.92;97492.55;1676056;86;21035;-87
2022/03/03 02:32:26;;;;;;;14.50;6.30;;;;;;;-1.46;68.89;97495.13;1684191;85;20988;-86
2022/03/03 02:34:52;;;;;;;11.97;6.28;;;;;;;-1.46;68.85;97499.02;1684039;84;21057;-86
2022/03/03 02:37:19;;;;;;;13.20;6.55;;;;;;;-1.49;68.56;97489.03;1682596;84;20965;-86
2022/03/03 02:39:48;;;;;;;13.50;6.55;;;;;;;-1.54;68.61;97488.97;1712361;84;21095;-86
2022/03/03 02:42:15;;;;;;;12.93;6.55;;;;;;;-1.59;68.53;97491.95;1712826;84;21445;-84
2022/03/03 02:44:42;;;;;;;12.30;6.05;;;;;;;-1.62;68.61;97498.43;1712328;82;21106;-83
2022/03/03 02:47:09;;;;;;;13.65;6.00;;;;;;;-1.67;68.62;97501.41;1712167;84;21036;-83
2022/03/03 02:49:36;;;;;;;12.10;6.17;;;;;;;-1.73;68.74;97491.36;1716519;83;21044;-82
2022/03/03 02:52:03;;;;;;;12.82;6.70;;;;;;;-1.77;68.75;97490.02;1723708;83;21054;-82
2022/03/03 02:54:30;;;;;;;11.35;6.08;;;;;;;-1.81;69.03;97488.23;1723119;83;21056;-85
2022/03/03 02:59:43;;;;;;;13.03;6.72;;;;;;;-1.86;70.00;97483.86;1693881;85;21522;-85
2022/03/03 03:02:09;;;;;;;14.28;6.83;;;;;;;-1.88;71.19;97483.39;1705170;84;21031;-85
2022/03/03 03:04:37;;;;;;;15.58;7.10;;;;;;;-1.88;70.89;97487.29;1724738;83;21043;-82
2022/03/03 03:07:05;;;;;;;12.30;6.50;;;;;;;-1.91;71.01;97485.98;1682883;84;21025;-85
2022/03/03 03:09:34;;;;;;;12.53;6.50;;;;;;;-1.93;70.72;97479.46;1677140;85;21689;-85
2022/03/03 03:12:04;;;;;;;11.93;6.42;;;;;;;-1.93;70.14;97477.27;1677418;85;20995;-83
2022/03/03 03:14:31;;;;;;;15.53;7.15;;;;;;;-1.93;70.33;97475.56;1677408;85;21436;-82
2022/03/03 03:16:57;;;;;;;15.20;7.05;;;;;;;-1.94;69.83;97468.63;1697113;84;21108;-82
2022/03/03 03:19:24;;;;;;;16.52;7.85;;;;;;;-1.93;69.60;97470.37;1699326;84;21083;-83
2022/03/03 03:21:52;;;;;;;17.20;7.60;;;;;;;-1.96;70.83;97469.02;1724611;83;21054;-83
2022/03/03 03:24:18;;;;;;;15.83;7.78;;;;;;;-1.96;70.74;97472.06;1705385;84;21020;-84
2022/03/03 03:26:45;;;;;;;15.90;7.60;;;;;;;-1.96;71.22;97468.17;1707557;83;20996;-84
2022/03/03 03:29:11;;;;;;;16.82;7.42;;;;;;;-1.99;70.80;97466.41;1677308;85;21109;-85
2022/03/03 03:31:38;;;;;;;14.78;7.17;;;;;;;-2.00;70.02;97465.53;1677759;85;20991;-84
2022/03/03 03:34:05;;;;;;;15.93;7.80;;;;;;;-2.04;71.07;97457.70;1677801;85;21003;-84
2022/03/03 03:36:33;;;;;;;14.13;7.67;;;;;;;-2.06;71.34;97458.08;1691888;84;21440;-85
2022/03/03 03:38:59;;;;;;;15.75;7.78;;;;;;;-2.08;71.69;97459.36;1712743;84;21051;-85
2022/03/03 03:41:26;;;;;;;13.90;7.20;;;;;;;-2.13;72.47;97457.13;1712801;84;21059;-84
2022/03/03 03:43:54;;;;;;;14.28;7.10;;;;;;;-2.10;71.70;97458.89;1707689;82;21469;-85
2022/03/03 03:46:20;;;;;;;9.73;5.58;;;;;;;-2.12;72.29;97461.05;1712828;84;21433;-84
2022/03/03 03:48:47;;;;;;;14.25;7.15;;;;;;;-2.12;72.47;97459.75;1712818;84;21456;-84
2022/03/03 03:51:16;;;;;;;16.27;7.53;;;;;;;-2.13;72.52;97459.73;1699726;84;21059;-84
2022/03/03 03:53:46;;;;;;;15.50;7.30;;;;;;;-2.10;72.04;97455.89;1700475;83;21465;-84
2022/03/03 03:56:12;;;;;;;16.52;7.97;;;;;;;-2.13;72.24;97456.72;1676096;86;21035;-84
2022/03/03 03:58:39;;;;;;;14.83;6.95;;;;;;;-2.12;71.93;97455.86;1716832;84;21073;-84
2022/03/03 04:01:06;;;;;;;14.20;6.08;;;;;;;-2.16;72.60;97461.02;1717365;83;21012;-84
2022/03/03 04:03:32;;;;;;;11.78;5.42;;;;;;;-2.17;72.63;97454.05;1721711;83;21427;-84
2022/03/03 04:05:59;;;;;;;15.15;7.17;;;;;;;-2.20;72.83;97457.48;1697729;84;21052;-84
2022/03/03 04:08:26;;;;;;;13.88;7.40;;;;;;;-2.18;72.05;97454.50;1694389;85;21037;-84
2022/03/03 04:10:53;;;;;;;12.35;5.85;;;;;;;-2.24;72.81;97445.34;1694091;85;21665;-85
2022/03/03 04:13:21;;;;;;;13.98;8.00;;;;;;;-2.24;72.86;97445.75;1707568;83;20989;-85
2022/03/03 04:15:47;;;;;;;14.75;7.22;;;;;;;-2.24;72.51;97445.75;1718536;83;21028;-85
2022/03/03 04:18:14;;;;;;;13.50;5.85;;;;;;;-2.28;73.17;97443.55;1718573;83;20993;-85
2022/03/03 04:20:42;;;;;;;15.25;7.40;;;;;;;-2.28;73.18;97449.59;1718630;83;21502;-84
2022/03/03 04:23:09;;;;;;;11.88;6.90;;;;;;;-2.27;73.20;97445.29;1712647;83;20982;-84
2022/03/03 04:25:36;;;;;;;16.05;7.47;;;;;;;-2.26;73.06;97441.84;1676303;86;21064;-85
2022/03/03 04:28:05;;;;;;;13.58;6.95;;;;;;;-2.25;72.64;97443.58;1717049;83;20985;-84
2022/03/03 04:30:31;;;;;;;18.62;7.83;;;;;;;-2.24;72.53;97441.86;1676381;86;21067;-84
2022/03/03 04:32:59;;;;;;;12.90;7.47;;;;;;;-2.20;72.28;97442.34;1721022;83;20996;-84
2022/03/03 04:35:26;;;;;;;16.23;8.08;;;;;;;-2.19;72.46;97446.69;1712781;84;21020;-84
2022/03/03 04:37:52;;;;;;;15.72;7.97;;;;;;;-2.21;72.68;97444.06;1712803;84;21055;-84
2022/03/03 04:40:19;;;;;;;15.25;7.37;;;;;;;-2.18;72.75;97449.72;1699696;84;21050;-85
2022/03/03 04:42:46;;;;;;;16.50;7.42;;;;;;;-2.18;72.81;97453.61;1707727;84;21028;-85
2022/03/03 04:45:12;;;;;;;15.78;7.72;;;;;;;-2.16;72.78;97449.33;1694503;85;21067;-85
2022/03/03 04:47:41;;;;;;;15.75;7.28;;;;;;;-2.16;72.93;97454.52;1683755;85;21387;-84
2022/03/03 04:50:09;;;;;;;15.08;7.70;;;;;;;-2.16;72.40;97458.41;1694492;85;21040;-84
2022/03/03 04:52:37;;;;;;;13.78;7.12;;;;;;;-2.14;72.45;97462.77;1688849;84;21695;-84
2022/03/03 04:55:05;;;;;;;14.53;7.67;;;;;;;-2.17;72.87;97460.54;1711068;84;21039;-84
2022/03/03 04:57:34;;;;;;;14.30;8.25;;;;;;;-2.15;71.82;97456.26;1711240;84;21055;-84
2022/03/03 05:00:05;;;;;;;15.23;8.93;;;;;;;-2.13;71.96;97460.61;1711355;84;21017;-84
2022/03/03 05:02:31;;;;;;;12.53;7.95;;;;;;;-2.15;72.46;97466.64;1711360;84;21095;-84
2022/03/03 05:04:58;;;;;;;19.42;8.60;;;;;;;-2.15;72.22;97461.45;1712056;84;21000;-84
2022/03/03 05:07:27;;;;;;;18.57;8.43;;;;;;;-2.12;71.74;97465.36;1710240;84;21546;-85
2022/03/03 05:09:54;;;;;;;16.20;7.90;;;;;;;-2.15;72.48;97461.45;1712974;84;21039;-79
2022/03/03 05:12:20;;;;;;;15.88;8.95;;;;;;;-2.15;72.36;97461.45;1725406;83;21081;-78
2022/03/03 05:14:47;;;;;;;16.70;8.05;;;;;;;-2.13;72.15;97464.52;1725240;83;21052;-80
2022/03/03 05:17:13;;;;;;;17.50;8.33;;;;;;;-2.11;71.78;97456.75;1683858;85;21036;-77
2022/03/03 05:19:40;;;;;;;17.85;9.00;;;;;;;-2.05;72.03;97462.00;1724161;83;21043;-84
2022/03/03 05:22:06;;;;;;;17.82;8.73;;;;;;;-2.02;72.22;97468.55;1681063;85;21596;-85
2022/03/03 05:24:33;;;;;;;19.77;9.48;;;;;;;-1.97;72.12;97472.89;1715527;82;21582;-84
2022/03/03 05:27:00;;;;;;;17.80;9.20;;;;;;;-1.89;71.83;97478.64;1684217;85;21430;-82
2022/03/03 05:29:27;;;;;;;15.85;8.73;;;;;;;-1.85;71.61;97467.86;1723246;83;21040;-86
2022/03/03 05:31:57;;;;;;;19.10;9.18;;;;;;;-1.82;72.04;97473.09;1714368;82;21033;-83
2022/03/03 05:34:23;;;;;;;19.40;10.23;;;;;;;-1.78;71.61;97466.20;1742583;82;21130;-87
2022/03/03 05:36:50;;;;;;;15.32;7.67;;;;;;;-1.76;71.48;97467.96;1719522;82;21124;-84
2022/03/03 05:39:18;;;;;;;17.65;9.18;;;;;;;-1.75;71.59;97454.11;1707848;84;21108;-83
2022/03/03 05:41:45;;;;;;;18.42;9.48;;;;;;;-1.69;71.44;97468.91;1703351;83;21028;-84
2022/03/03 05:44:13;;;;;;;22.05;9.28;;;;;;;-1.69;71.72;97472.80;1693336;84;21026;-84
2022/03/03 05:46:42;;;;;;;18.98;8.65;;;;;;;-1.60;71.21;97466.82;1676472;85;21087;-83
2022/03/03 05:49:10;;;;;;;16.82;9.28;;;;;;;-1.54;71.25;97464.28;1700434;84;21072;-84
2022/03/03 05:51:37;;;;;;;16.65;9.43;;;;;;;-1.53;71.44;97466.02;1686028;83;21050;-83
2022/03/03 05:54:05;;;;;;;14.55;8.33;;;;;;;-1.46;71.12;97462.64;1705330;84;21437;-83
2022/03/03 05:56:36;;;;;;;17.07;9.18;;;;;;;-1.43;70.98;97459.61;1705324;84;21363;-84
2022/03/03 05:59:08;;;;;;;19.00;9.55;;;;;;;-1.37;70.95;97463.59;1704803;84;21034;-84
2022/03/03 06:01:40;;;;;;;21.17;9.23;;;;;;;-1.30;70.60;97459.33;1697235;84;21026;-84
2022/03/03 06:04:10;;;;;;;22.32;10.00;;;;;;;-1.22;70.50;97462.42;1712869;84;21026;-84
2022/03/03 06:06:38;;;;;;;19.60;9.38;;;;;;;-1.11;70.40;97461.22;1689281;84;21141;-84
2022/03/03 06:09:14;;;;;;;21.25;9.95;;;;;;;-1.00;70.13;97450.03;1713210;84;21060;-84
2022/03/03 06:12:06;;;;;;;17.55;8.90;;;;;;;-0.97;70.06;97447.02;1720886;82;21000;-84
2022/03/03 06:14:44;;;;;;;35.98;16.80;;;;;;;-0.95;69.87;97451.79;1684033;85;21002;-85
2022/03/03 06:17:11;;;;;;;23.45;11.93;;;;;;;-0.94;69.68;97441.85;1742718;82;21039;-85
2022/03/03 06:19:42;;;;;;;21.65;11.35;;;;;;;-0.91;69.70;97434.91;1740225;82;21016;-84
2022/03/03 06:22:10;;;;;;;21.20;10.53;;;;;;;-0.85;69.64;97437.14;1728289;83;21031;-83
2022/03/03 06:24:38;;;;;;;20.27;10.40;;;;;;;-0.86;69.67;97443.20;1728202;83;21152;-84
2022/03/03 06:27:05;;;;;;;19.20;10.08;;;;;;;-0.84;69.77;97450.99;1728325;83;21019;-84
2022/03/03 06:29:33;;;;;;;20.32;10.50;;;;;;;-0.78;69.53;97448.46;1706965;82;21409;-84
2022/03/03 06:32:01;;;;;;;21.90;9.80;;;;;;;-0.75;69.48;97441.10;1742295;82;21019;-83
2022/03/03 06:34:28;;;;;;;20.20;10.68;;;;;;;-0.71;69.40;97447.63;1684003;85;21442;-84
2022/03/03 06:36:55;;;;;;;16.90;9.70;;;;;;;-0.69;69.36;97440.72;1742712;82;21086;-84
2022/03/03 06:39:22;;;;;;;19.62;10.55;;;;;;;-0.64;69.30;97446.35;1742306;82;21106;-83
2022/03/03 06:41:50;;;;;;;18.20;9.85;;;;;;;-0.60;69.23;97445.52;1713419;84;21053;-83
2022/03/03 06:44:16;;;;;;;20.02;9.70;;;;;;;-0.58;69.02;97440.76;1713500;84;21073;-84
2022/03/03 06:46:43;;;;;;;19.73;10.00;;;;;;;-0.56;69.02;97434.27;1713474;84;21012;-84
2022/03/03 06:49:12;;;;;;;18.67;9.38;;;;;;;-0.49;69.10;97442.56;1713463;84;21453;-83
2022/03/03 06:51:47;;;;;;;18.70;9.85;;;;;;;-0.46;68.54;97447.77;1739839;82;21067;-83
2022/03/03 06:54:18;;;;;;;17.35;10.00;;;;;;;-0.40;68.65;97447.80;1709518;84;21416;-83
2022/03/03 06:56:52;;;;;;;23.27;10.48;;;;;;;-0.36;68.14;97444.80;1709653;84;21484;-83
2022/03/03 06:59:22;;;;;;;21.82;10.60;;;;;;;-0.41;68.30;97442.16;1709716;84;21052;-83
2022/03/03 07:01:52;;;;;;;17.92;10.20;;;;;;;-0.42;68.57;97446.93;1721313;83;21473;-83
2022/03/03 07:04:20;;;;;;;20.80;10.35;;;;;;;-0.40;68.76;97449.55;1709909;84;21037;-83
2022/03/03 07:06:48;;;;;;;21.57;10.50;;;;;;;-0.38;68.77;97437.39;1709993;84;21078;-83
2022/03/03 07:09:16;;;;;;;21.85;10.48;;;;;;;-0.26;68.76;97441.80;1709996;84;21035;-83
2022/03/03 07:11:45;;;;;;;14.43;8.53;;;;;;;-0.14;68.33;97444.89;1740291;82;21413;-83
2022/03/03 07:14:12;;;;;;;16.95;9.08;;;;;;;-0.03;68.13;97437.97;1709630;84;21493;-84
2022/03/03 07:17:09;;;;;;;18.15;9.30;;;;;;;0.10;67.83;97434.13;1709793;84;20992;-84
2022/03/03 07:19:41;;;;;;;14.93;7.87;;;;;;;0.25;67.67;97435.92;1734205;83;21028;-84
2022/03/03 07:22:18;;;;;;;20.15;9.65;;;;;;;0.36;67.02;97434.63;1709221;84;21010;-84
2022/03/03 07:25:07;;;;;;;15.78;8.78;;;;;;;0.48;66.98;97432.47;1709971;84;21010;-84
2022/03/03 07:27:41;;;;;;;17.07;8.90;;;;;;;0.58;66.54;97443.34;1709650;84;21029;-84
2022/03/03 07:30:15;;;;;;;16.90;9.55;;;;;;;0.66;66.19;97438.14;1732459;82;21502;-85
2022/03/03 07:33:05;;;;;;;16.60;7.87;;;;;;;0.70;66.09;97437.73;1704671;84;21036;-82
2022/03/03 07:35:37;;;;;;;14.98;8.58;;;;;;;0.67;66.05;97440.33;1704199;84;21000;-83
2022/03/03 07:38:08;;;;;;;16.27;8.75;;;;;;;0.67;66.12;97437.30;1723818;83;21104;-83
2022/03/03 07:40:36;;;;;;;13.62;8.80;;;;;;;0.68;66.08;97442.94;1730216;83;21030;-84
2022/03/03 07:43:03;;;;;;;15.43;9.15;;;;;;;0.76;65.99;97441.22;1705681;83;21033;-83
2022/03/03 07:45:29;;;;;;;16.20;8.83;;;;;;;0.85;66.01;97429.91;1730312;83;21022;-83
2022/03/03 07:47:57;;;;;;;17.32;7.50;;;;;;;1.00;65.81;97417.73;1730325;83;21022;-83
2022/03/03 07:50:27;;;;;;;16.23;7.45;;;;;;;1.14;65.15;97408.57;1706677;84;21146;-83
2022/03/03 07:52:55;;;;;;;13.58;7.83;;;;;;;1.29;64.21;97421.59;1684428;85;20995;-83
2022/03/03 07:55:23;;;;;;;14.00;7.78;;;;;;;1.37;64.58;97408.52;1684486;85;21066;-83
2022/03/03 07:58:02;;;;;;;13.85;7.33;;;;;;;1.49;64.33;97401.09;1685088;84;21461;-83
2022/03/03 08:00:34;;;;;;;11.93;6.83;;;;;;;1.62;62.16;97409.76;1704160;84;21023;-83
2022/03/03 08:03:05;;;;;;;12.13;6.58;;;;;;;1.61;61.87;97401.95;1674114;86;21067;-83
2022/03/03 08:05:32;;;;;;;10.18;6.30;;;;;;;1.68;62.53;97399.31;1704027;84;21058;-84
2022/03/03 08:08:02;;;;;;;14.23;6.65;;;;;;;1.72;60.99;97398.86;1693146;84;21020;-84
2022/03/03 08:10:30;;;;;;;8.23;5.83;;;;;;;1.70;61.01;97406.69;1733041;83;21400;-84
2022/03/03 08:12:59;;;;;;;12.47;6.37;;;;;;;1.67;60.24;97414.53;1712959;84;21535;-84
2022/03/03 08:15:26;;;;;;;11.50;5.95;;;;;;;1.70;60.71;97413.65;1704228;83;20972;-84
2022/03/03 08:17:54;;;;;;;11.83;5.45;;;;;;;1.69;60.42;97417.14;1684393;85;21477;-84
2022/03/03 08:20:22;;;;;;;12.33;6.15;;;;;;;1.73;60.31;97412.80;1685036;85;21448;-84
2022/03/03 08:22:49;;;;;;;9.75;5.50;;;;;;;1.82;60.52;97416.66;1704109;84;21484;-84
2022/03/03 08:25:17;;;;;;;13.28;6.50;;;;;;;1.79;60.13;97417.99;1710091;83;21000;-84
2022/03/03 08:27:44;;;;;;;10.88;6.22;;;;;;;1.88;60.17;97394.87;1713024;84;21508;-84
2022/03/03 08:30:13;;;;;;;10.30;5.78;;;;;;;1.96;60.35;97402.25;1712699;84;21079;-83
2022/03/03 08:32:44;;;;;;;12.53;6.17;;;;;;;1.98;60.06;97397.87;1733253;83;21397;-82
2022/03/03 08:35:23;;;;;;;9.05;5.67;;;;;;;2.02;59.83;97394.79;1710021;84;22094;-84
2022/03/03 08:38:04;;;;;;;12.58;5.95;;;;;;;2.07;59.74;97382.56;1733373;82;21047;-84
2022/03/03 08:40:31;;;;;;;13.48;5.83;;;;;;;2.15;59.67;97386.47;1733423;82;20944;-85
2022/03/03 08:43:02;;;;;;;13.55;5.67;;;;;;;2.24;58.59;97392.92;1733349;83;21062;-85
2022/03/03 08:45:32;;;;;;;8.55;4.87;;;;;;;2.26;58.21;97387.70;1731132;83;21019;-86
2022/03/03 08:48:04;;;;;;;10.65;5.10;;;;;;;2.30;57.91;97388.11;1733066;83;20976;-84
2022/03/03 08:50:33;;;;;;;9.08;5.10;;;;;;;2.39;57.74;97382.83;1733036;82;20991;-84
2022/03/03 08:53:01;;;;;;;8.05;4.45;;;;;;;2.40;57.12;97370.63;1735281;83;21007;-85
2022/03/03 08:55:29;;;;;;;8.65;4.70;;;;;;;2.47;57.99;97379.72;1708662;83;21010;-83
2022/03/03 08:57:58;;;;;;;22.27;10.85;;;;;;;2.55;57.75;97374.86;1706074;84;20971;-83
2022/03/03 09:00:28;;;;;;;22.55;10.80;;;;;;;2.65;57.87;97371.29;1705831;84;21067;-84
2022/03/03 09:02:55;;;;;;;8.90;4.42;;;;;;;2.71;57.19;97368.65;1706156;84;21082;-84
2022/03/03 09:05:21;;;;;;;9.08;4.50;;;;;;;2.81;57.97;97372.04;1730013;83;21042;-84
2022/03/03 09:07:48;;;;;;;7.28;4.78;;;;;;;2.92;57.96;97376.31;1735326;83;21007;-84
2022/03/03 09:10:16;;;;;;;10.20;4.97;;;;;;;3.00;57.27;97371.88;1735319;83;21064;-84
2022/03/03 09:12:43;;;;;;;11.68;5.60;;;;;;;3.07;57.72;97363.08;1735412;83;21019;-83
2022/03/03 09:15:11;;;;;;;8.98;4.72;;;;;;;3.23;57.87;97354.63;1735152;83;21019;-84
2022/03/03 09:17:39;;;;;;;7.92;5.25;;;;;;;3.39;56.16;97364.94;1735462;83;20983;-84
2022/03/03 09:20:11;;;;;;;7.87;4.90;;;;;;;3.50;56.18;97357.84;1735308;83;21019;-84
2022/03/03 09:22:38;;;;;;;10.00;4.72;;;;;;;3.66;57.12;97353.73;1735984;83;21477;-85
2022/03/03 09:25:06;;;;;;;9.28;5.35;;;;;;;3.77;55.90;97352.27;1734611;83;20968;-84
2022/03/03 09:27:32;;;;;;;8.93;4.62;;;;;;;3.90;54.84;97351.69;1734413;83;21468;-84
2022/03/03 09:29:58;;;;;;;10.50;5.22;;;;;;;3.88;53.38;97363.93;1735310;83;20995;-84
2022/03/03 09:32:25;;;;;;;12.03;5.40;;;;;;;3.92;54.31;97346.84;1735403;83;21023;-84
2022/03/03 09:34:52;;;;;;;10.90;4.00;;;;;;;4.07;55.47;97351.00;1735376;83;21528;-85
2022/03/03 09:37:18;;;;;;;8.75;5.28;;;;;;;4.17;52.79;97356.12;1708137;83;20955;-84
2022/03/03 09:39:46;;;;;;;10.23;5.55;;;;;;;4.34;54.46;97349.31;1706211;84;20984;-83
2022/03/03 09:42:13;;;;;;;8.40;5.10;;;;;;;4.46;52.62;97345.20;1706024;83;21022;-83
2022/03/03 09:44:40;;;;;;;11.65;6.15;;;;;;;4.57;54.05;97350.27;1706087;84;21460;-83
2022/03/03 09:47:07;;;;;;;11.38;5.50;;;;;;;4.72;52.95;97362.28;1706166;84;21444;-84
2022/03/03 09:49:34;;;;;;;13.25;6.83;;;;;;;4.81;52.40;97349.91;1708416;83;21026;-82
2022/03/03 09:52:01;;;;;;;11.08;6.03;;;;;;;4.92;51.84;97354.52;1704762;84;20980;-83
2022/03/03 09:54:28;;;;;;;11.00;5.87;;;;;;;4.97;51.12;97351.37;1703778;84;21416;-82
2022/03/03 09:56:55;;;;;;;14.45;6.33;;;;;;;5.15;51.93;97334.41;1703783;84;21002;-82
2022/03/03 09:59:21;;;;;;;10.80;5.72;;;;;;;5.23;50.96;97341.30;1699654;84;21055;-83
2022/03/03 10:01:48;;;;;;;10.10;5.47;;;;;;;5.29;51.50;97347.27;1703570;84;21027;-82
2022/03/03 10:04:22;;;;;;;9.68;6.05;;;;;;;5.10;50.23;97349.39;1696247;84;21454;-83
2022/03/03 10:06:49;;;;;;;;;;;;;;;5.26;51.23;97346.03;1676676;86;21021;-83
2022/03/03 10:09:17;;;;;;;7.78;4.97;;;;;;;5.30;50.71;97336.33;1703768;84;20328;-83
2022/03/03 10:12:03;;;;;;;14.95;7.17;;;;;;;5.18;50.35;97330.01;1729758;83;21412;-84
2022/03/03 10:14:35;;;;;;;11.00;5.85;;;;;;;5.16;51.09;97330.03;1733113;83;20990;-83
2022/03/03 10:17:03;;;;;;;11.50;6.00;;;;;;;5.25;51.08;97325.92;1732959;83;20958;-83
2022/03/03 10:19:31;;;;;;;10.60;6.00;;;;;;;5.29;50.94;97322.78;1732985;83;20951;-83
2022/03/03 10:21:58;;;;;;;11.57;6.35;;;;;;;5.40;51.04;97318.64;1676262;84;21456;-83
2022/03/03 10:24:30;;;;;;;9.55;5.53;;;;;;;5.54;51.65;97322.30;1703695;84;20981;-84
2022/03/03 10:27:07;;;;;;;12.33;6.55;;;;;;;5.68;49.83;97313.67;1703731;84;21470;-83
2022/03/03 10:29:35;;;;;;;11.53;5.80;;;;;;;5.76;49.92;97314.83;1675651;86;21485;-83
2022/03/03 10:32:04;;;;;;;39.67;21.65;;;;;;;5.97;48.99;97311.31;1679778;84;21457;-83
2022/03/03 10:34:34;;;;;;;11.57;5.53;;;;;;;6.32;50.50;97307.50;1733046;83;20950;-83
2022/03/03 10:37:10;;;;;;;9.40;5.20;;;;;;;6.53;47.36;97305.25;1703636;84;21013;-83
2022/03/03 10:39:48;;;;;;;8.88;5.40;;;;;;;6.64;47.91;97311.11;1733095;83;20985;-83
2022/03/03 10:42:19;;;;;;;8.78;5.12;;;;;;;6.69;47.15;97298.69;1704322;83;21068;-83
2022/03/03 10:44:47;;;;;;;10.40;6.03;;;;;;;6.62;46.92;97298.88;1730749;83;21394;-83
2022/03/03 10:47:18;;;;;;;8.88;5.35;;;;;;;6.58;47.39;97287.13;1709794;84;21474;-83
2022/03/03 10:49:49;;;;;;;8.40;5.05;;;;;;;6.51;46.91;97295.22;1732719;83;21413;-83
2022/03/03 10:52:23;;;;;;;6.95;4.85;;;;;;;6.45;46.11;97293.59;1736344;82;21049;-82
2022/03/03 10:55:15;;;;;;;7.47;4.80;;;;;;;6.68;45.87;97286.91;1732352;83;21015;-82
2022/03/03 10:57:58;;;;;;;8.50;4.67;;;;;;;7.17;44.81;97283.85;1705846;84;21516;-83
2022/03/03 11:00:28;;;;;;;8.63;5.05;;;;;;;7.08;45.14;97286.30;1716000;84;21383;-83
2022/03/03 11:02:58;;;;;;;7.83;4.97;;;;;;;7.21;45.69;97281.55;1695398;84;21043;-83
2022/03/03 11:05:29;;;;;;;7.28;4.15;;;;;;;6.98;44.21;97277.79;1709704;84;21011;-83
2022/03/03 11:07:57;;;;;;;6.08;4.53;;;;;;;7.03;44.94;97277.66;1739667;82;21441;-83
2022/03/03 11:10:27;;;;;;;9.10;5.05;;;;;;;6.79;44.92;97289.24;1732084;82;21382;-83
2022/03/03 11:12:55;;;;;;;8.33;5.00;;;;;;;6.74;45.16;97282.32;1725098;83;21016;-84
2022/03/03 11:15:24;;;;;;;9.03;4.92;;;;;;;6.70;46.03;97287.72;1725249;83;20998;-83
2022/03/03 11:17:52;;;;;;;9.48;5.17;;;;;;;6.54;45.83;97285.91;1714431;82;21035;-83
2022/03/03 11:20:20;;;;;;;11.30;5.33;;;;;;;6.40;45.99;97282.31;1710939;82;21071;-83
2022/03/03 11:22:51;;;;;;;7.92;4.67;;;;;;;6.60;46.74;97283.12;1710376;84;21079;-84
2022/03/03 11:25:29;;;;;;;5.75;3.70;;;;;;;6.92;46.59;97276.61;1710351;84;20992;-84
2022/03/03 11:28:09;;;;;;;7.70;3.98;;;;;;;7.34;45.92;97272.41;1709350;84;21207;-83
2022/03/03 11:30:36;;;;;;;6.83;3.90;;;;;;;7.48;45.77;97275.95;1715055;82;20960;-83
2022/03/03 11:33:27;;;;;;;7.55;4.37;;;;;;;7.44;44.07;97274.34;1711462;84;20988;-83
2022/03/03 11:36:04;;;;;;;8.25;4.47;;;;;;;7.33;44.45;97271.13;1710289;84;21183;-83
2022/03/03 11:38:53;;;;;;;9.30;4.78;;;;;;;7.21;44.12;97267.05;1714571;82;20985;-83
2022/03/03 11:41:25;;;;;;;8.58;4.78;;;;;;;7.70;44.46;97259.52;1709468;84;21067;-83